createdAt,value
2019-02-24T00:00:51.712Z,0.00
2019-02-24T00:01:51.669Z,0.00
2019-02-24T00:02:51.658Z,0.00
2019-02-24T00:03:51.649Z,0.00
2019-02-24T00:04:51.579Z,0.00
2019-02-24T00:05:51.548Z,0.00
2019-02-24T00:06:51.530Z,0.00
2019-02-24T00:07:51.472Z,0.00
2019-02-24T00:08:51.455Z,0.00
2019-02-24T00:10:51.400Z,0.00
2019-02-24T00:11:51.368Z,0.00
2019-02-24T00:12:51.340Z,0.00
2019-02-24T00:13:51.285Z,0.00
2019-02-24T00:14:51.274Z,0.00
2019-02-24T00:15:51.241Z,0.00
2019-02-24T00:16:51.192Z,0.00
2019-02-24T00:17:51.197Z,0.00
2019-02-24T00:18:51.130Z,0.00
2019-02-24T00:19:51.100Z,0.00
2019-02-24T00:20:51.092Z,8.00
2019-02-24T00:21:51.056Z,8.00
2019-02-24T00:22:51.013Z,8.00
2019-02-24T00:23:51.223Z,8.00
2019-02-24T00:24:50.943Z,8.00
2019-02-24T00:25:50.928Z,8.00
2019-02-24T00:26:50.992Z,8.00
2019-02-24T00:27:50.850Z,8.00
2019-02-24T00:28:50.841Z,8.00
2019-02-24T00:29:50.783Z,8.00
2019-02-24T00:30:50.789Z,8.00
2019-02-24T00:31:50.741Z,8.00
2019-02-24T00:32:50.688Z,8.00
2019-02-24T00:33:50.657Z,8.00
2019-02-24T00:35:50.637Z,8.00
2019-02-24T00:36:50.567Z,8.00
2019-02-24T00:37:50.533Z,8.00
2019-02-24T00:38:50.533Z,8.00
2019-02-24T00:39:50.491Z,8.00
2019-02-24T00:40:50.605Z,8.00
2019-02-24T00:41:50.424Z,8.00
2019-02-24T00:42:50.395Z,8.00
2019-02-24T00:43:50.342Z,8.00
2019-02-24T00:44:50.314Z,8.00
2019-02-24T00:45:50.314Z,8.00
2019-02-24T00:46:50.274Z,8.00
2019-02-24T00:47:50.247Z,8.00
2019-02-24T00:48:50.206Z,8.00
2019-02-24T00:49:50.184Z,8.00
2019-02-24T00:50:50.131Z,8.00
2019-02-24T00:51:50.097Z,0.00
2019-02-24T00:52:50.102Z,0.00
2019-02-24T00:53:50.046Z,0.00
2019-02-24T00:54:50.001Z,0.00
2019-02-24T00:55:49.983Z,0.00
2019-02-24T00:56:49.940Z,0.00
2019-02-24T00:57:49.924Z,0.00
2019-02-24T00:58:49.872Z,0.00
2019-02-24T00:59:49.850Z,0.00
2019-02-24T01:00:49.827Z,0.00
2019-02-24T01:01:49.796Z,0.00
2019-02-24T01:02:49.753Z,0.00
2019-02-24T01:03:49.733Z,0.00
2019-02-24T01:04:49.700Z,0.00
2019-02-24T01:05:49.659Z,0.00
2019-02-24T01:06:49.992Z,0.00
2019-02-24T01:07:49.692Z,0.00
2019-02-24T01:08:49.561Z,0.00
2019-02-24T01:09:49.522Z,0.00
2019-02-24T01:10:49.509Z,0.00
2019-02-24T01:11:49.479Z,0.00
2019-02-24T01:12:49.580Z,0.00
2019-02-24T01:13:49.426Z,0.00
2019-02-24T01:14:49.394Z,0.00
2019-02-24T01:15:49.349Z,0.00
2019-02-24T01:16:49.336Z,0.00
2019-02-24T01:17:49.274Z,0.00
2019-02-24T01:18:49.241Z,0.00
2019-02-24T01:19:49.233Z,0.00
2019-02-24T01:20:49.176Z,0.00
2019-02-24T01:21:49.164Z,0.00
2019-02-24T01:22:49.128Z,0.00
2019-02-24T01:23:49.078Z,0.00
2019-02-24T01:24:49.067Z,0.00
2019-02-24T01:25:49.055Z,0.00
2019-02-24T01:26:48.994Z,0.00
2019-02-24T01:27:48.952Z,0.00
2019-02-24T01:28:48.920Z,0.00
2019-02-24T01:29:48.918Z,0.00
2019-02-24T01:30:48.875Z,0.00
2019-02-24T01:31:48.832Z,0.00
2019-02-24T01:32:48.825Z,0.00
2019-02-24T01:33:48.797Z,0.00
2019-02-24T01:34:48.737Z,0.00
2019-02-24T01:35:48.724Z,0.00
2019-02-24T01:36:48.678Z,0.00
2019-02-24T01:37:48.635Z,0.00
2019-02-24T01:38:48.626Z,0.00
2019-02-24T01:39:48.588Z,0.00
2019-02-24T01:40:48.558Z,0.00
2019-02-24T01:41:48.541Z,0.00
2019-02-24T01:42:48.477Z,0.00
2019-02-24T01:43:48.470Z,0.00
2019-02-24T01:44:48.436Z,0.00
2019-02-24T01:45:48.394Z,0.00
2019-02-24T01:46:48.377Z,0.00
2019-02-24T01:47:48.350Z,0.00
2019-02-24T01:48:48.319Z,0.00
2019-02-24T01:49:48.293Z,0.00
2019-02-24T01:50:48.263Z,0.00
2019-02-24T01:51:48.194Z,0.00
2019-02-24T01:52:48.163Z,0.00
2019-02-24T01:53:48.164Z,0.00
2019-02-24T01:54:48.118Z,0.00
2019-02-24T01:55:48.064Z,0.00
2019-02-24T01:56:48.132Z,0.00
2019-02-24T01:57:48.031Z,0.00
2019-02-24T01:58:48.021Z,0.00
2019-02-24T01:59:47.962Z,0.00
2019-02-24T02:00:47.911Z,0.00
2019-02-24T02:01:47.891Z,0.00
2019-02-24T02:02:47.886Z,0.00
2019-02-24T02:03:47.828Z,0.00
2019-02-24T02:04:47.785Z,0.00
2019-02-24T02:05:47.770Z,0.00
2019-02-24T02:06:47.742Z,0.00
2019-02-24T02:07:47.708Z,0.00
2019-02-24T02:08:47.677Z,0.00
2019-02-24T02:09:47.792Z,0.00
2019-02-24T02:10:47.633Z,0.00
2019-02-24T02:11:47.606Z,0.00
2019-02-24T02:12:47.529Z,0.00
2019-02-24T02:13:47.519Z,0.00
2019-02-24T02:14:47.491Z,0.00
2019-02-24T02:15:47.658Z,0.00
2019-02-24T02:16:47.423Z,0.00
2019-02-24T02:17:47.413Z,0.00
2019-02-24T02:18:47.350Z,0.00
2019-02-24T02:19:47.330Z,0.00
2019-02-24T02:20:47.336Z,0.00
2019-02-24T02:21:47.265Z,0.00
2019-02-24T02:22:47.238Z,0.00
2019-02-24T02:23:47.210Z,0.00
2019-02-24T02:24:47.171Z,0.00
2019-02-24T02:25:47.121Z,0.00
2019-02-24T02:26:47.088Z,0.00
2019-02-24T02:27:47.058Z,0.00
2019-02-24T02:28:47.026Z,0.00
2019-02-24T02:29:47.015Z,0.00
2019-02-24T02:30:46.962Z,0.00
2019-02-24T02:31:46.933Z,0.00
2019-02-24T02:32:46.922Z,0.00
2019-02-24T02:33:46.881Z,0.00
2019-02-24T02:34:46.864Z,0.00
2019-02-24T02:35:46.833Z,0.00
2019-02-24T02:36:46.774Z,0.00
2019-02-24T02:37:46.820Z,0.00
2019-02-24T02:38:46.722Z,0.00
2019-02-24T02:39:46.680Z,0.00
2019-02-24T02:40:46.647Z,0.00
2019-02-24T02:41:46.843Z,0.00
2019-02-24T02:42:46.604Z,0.00
2019-02-24T02:43:46.566Z,0.00
2019-02-24T02:44:46.560Z,0.00
2019-02-24T02:45:46.494Z,0.00
2019-02-24T02:46:46.482Z,0.00
2019-02-24T02:47:46.699Z,0.00
2019-02-24T02:48:46.393Z,0.00
2019-02-24T02:49:46.388Z,0.00
2019-02-24T02:50:46.334Z,0.00
2019-02-24T02:51:46.323Z,0.00
2019-02-24T02:52:46.276Z,0.00
2019-02-24T02:53:46.247Z,0.00
2019-02-24T02:54:46.202Z,0.00
2019-02-24T02:55:46.166Z,0.00
2019-02-24T02:56:46.157Z,0.00
2019-02-24T02:57:46.111Z,0.00
2019-02-24T02:58:53.971Z,0.00
2019-02-24T02:59:46.071Z,0.00
2019-02-24T03:00:46.013Z,0.00
2019-02-24T03:01:46.004Z,0.00
2019-02-24T03:02:45.969Z,0.00
2019-02-24T03:03:45.937Z,0.00
2019-02-24T03:04:45.904Z,0.00
2019-02-24T03:05:45.857Z,0.00
2019-02-24T03:06:45.825Z,0.00
2019-02-24T03:07:45.827Z,0.00
2019-02-24T03:08:45.777Z,0.00
2019-02-24T03:09:45.734Z,0.00
2019-02-24T03:10:45.707Z,0.00
2019-02-24T03:11:45.688Z,0.00
2019-02-24T03:12:45.663Z,0.00
2019-02-24T03:13:45.647Z,0.00
2019-02-24T03:14:45.593Z,0.00
2019-02-24T03:15:45.529Z,0.00
2019-02-24T03:16:45.521Z,0.00
2019-02-24T03:17:45.485Z,0.00
2019-02-24T03:18:45.444Z,0.00
2019-02-24T03:19:45.424Z,0.00
2019-02-24T03:20:45.389Z,0.00
2019-02-24T03:21:45.373Z,0.00
2019-02-24T03:22:45.316Z,0.00
2019-02-24T03:23:45.290Z,0.00
2019-02-24T03:24:45.273Z,0.00
2019-02-24T03:25:45.214Z,0.00
2019-02-24T03:26:45.182Z,0.00
2019-02-24T03:27:45.146Z,0.00
2019-02-24T03:28:45.121Z,0.00
2019-02-24T03:29:45.144Z,0.00
2019-02-24T03:30:45.057Z,0.00
2019-02-24T03:31:45.040Z,0.00
2019-02-24T03:32:45.017Z,0.00
2019-02-24T03:33:45.295Z,0.00
2019-02-24T03:34:44.931Z,0.00
2019-02-24T03:35:44.925Z,0.00
2019-02-24T03:36:44.868Z,0.00
2019-02-24T03:37:44.858Z,0.00
2019-02-24T03:38:44.815Z,0.00
2019-02-24T03:40:17.988Z,0.00
2019-02-24T03:40:44.754Z,0.00
2019-02-24T03:41:44.712Z,0.00
2019-02-24T03:42:44.668Z,0.00
2019-02-24T03:43:44.656Z,0.00
2019-02-24T03:44:44.756Z,0.00
2019-02-24T03:45:44.627Z,0.00
2019-02-24T03:46:44.591Z,0.00
2019-02-24T03:47:44.507Z,0.00
2019-02-24T03:48:44.509Z,0.00
2019-02-24T03:49:44.467Z,0.00
2019-02-24T03:50:44.767Z,0.00
2019-02-24T03:51:44.416Z,0.00
2019-02-24T03:52:44.371Z,0.00
2019-02-24T03:53:44.315Z,0.00
2019-02-24T03:54:44.328Z,0.00
2019-02-24T03:55:44.272Z,0.00
2019-02-24T03:56:44.270Z,0.00
2019-02-24T03:57:44.223Z,0.00
2019-02-24T03:58:44.183Z,0.00
2019-02-24T03:59:44.143Z,0.00
2019-02-24T04:00:44.119Z,0.00
2019-02-24T04:01:44.058Z,0.00
2019-02-24T04:02:44.033Z,0.00
2019-02-24T04:03:43.997Z,0.00
2019-02-24T04:04:43.966Z,0.00
2019-02-24T04:05:43.939Z,0.00
2019-02-24T04:06:43.916Z,0.00
2019-02-24T04:07:43.866Z,0.00
2019-02-24T04:08:43.836Z,0.00
2019-02-24T04:09:43.812Z,0.00
2019-02-24T04:10:43.792Z,0.00
2019-02-24T04:11:44.091Z,0.00
2019-02-24T04:12:43.735Z,0.00
2019-02-24T04:13:43.708Z,0.00
2019-02-24T04:14:43.652Z,0.00
2019-02-24T04:15:43.613Z,0.00
2019-02-24T04:16:43.602Z,0.00
2019-02-24T04:17:43.787Z,0.00
2019-02-24T04:18:43.524Z,0.00
2019-02-24T04:19:43.515Z,0.00
2019-02-24T04:20:43.448Z,0.00
2019-02-24T04:21:43.438Z,0.00
2019-02-24T04:22:43.406Z,0.00
2019-02-24T04:23:43.373Z,0.00
2019-02-24T04:24:43.345Z,0.00
2019-02-24T04:25:43.289Z,0.00
2019-02-24T04:26:43.276Z,0.00
2019-02-24T04:27:43.225Z,0.00
2019-02-24T04:28:43.191Z,0.00
2019-02-24T04:29:43.194Z,0.00
2019-02-24T04:30:43.126Z,0.00
2019-02-24T04:31:43.119Z,0.00
2019-02-24T04:32:43.071Z,0.00
2019-02-24T04:33:43.031Z,0.00
2019-02-24T04:34:42.995Z,0.00
2019-02-24T04:35:42.962Z,0.00
2019-02-24T04:36:42.941Z,0.00
2019-02-24T04:37:42.904Z,0.00
2019-02-24T04:38:42.873Z,0.00
2019-02-24T04:39:42.855Z,0.00
2019-02-24T04:40:42.824Z,0.00
2019-02-24T04:41:42.794Z,0.00
2019-02-24T04:42:42.765Z,0.00
2019-02-24T04:43:42.729Z,0.00
2019-02-24T04:44:42.691Z,0.00
2019-02-24T04:45:42.664Z,0.00
2019-02-24T04:46:42.637Z,0.00
2019-02-24T04:47:42.625Z,0.00
2019-02-24T04:48:42.552Z,0.00
2019-02-24T04:49:42.512Z,0.00
2019-02-24T04:50:42.483Z,0.00
2019-02-24T04:51:42.472Z,0.00
2019-02-24T04:52:42.421Z,0.00
2019-02-24T04:53:42.414Z,0.00
2019-02-24T04:54:42.730Z,0.00
2019-02-24T04:55:42.323Z,0.00
2019-02-24T04:56:42.312Z,0.00
2019-02-24T04:57:42.276Z,0.00
2019-02-24T04:58:42.244Z,0.00
2019-02-24T04:59:42.198Z,0.00
2019-02-24T05:00:42.182Z,0.00
2019-02-24T05:01:42.126Z,0.00
2019-02-24T05:02:42.128Z,0.00
2019-02-24T05:03:42.058Z,0.00
2019-02-24T05:04:42.030Z,0.00
2019-02-24T05:05:42.018Z,0.00
2019-02-24T05:06:41.981Z,0.00
2019-02-24T05:07:41.953Z,0.00
2019-02-24T05:08:41.903Z,0.00
2019-02-24T05:09:41.890Z,0.00
2019-02-24T05:10:41.857Z,0.00
2019-02-24T05:11:41.813Z,0.00
2019-02-24T05:12:41.792Z,0.00
2019-02-24T05:13:41.752Z,0.00
2019-02-24T05:14:41.724Z,0.00
2019-02-24T05:15:42.046Z,0.00
2019-02-24T05:16:41.674Z,0.00
2019-02-24T05:17:41.612Z,0.00
2019-02-24T05:18:41.597Z,0.00
2019-02-24T05:19:41.563Z,0.00
2019-02-24T05:20:41.511Z,0.00
2019-02-24T05:21:41.893Z,0.00
2019-02-24T05:22:41.451Z,0.00
2019-02-24T05:23:42.962Z,0.00
2019-02-24T05:24:41.385Z,0.00
2019-02-24T05:25:41.356Z,0.00
2019-02-24T05:26:41.323Z,0.00
2019-02-24T05:27:41.493Z,0.00
2019-02-24T05:28:41.273Z,0.00
2019-02-24T05:29:45.956Z,0.00
2019-02-24T05:30:41.201Z,0.00
2019-02-24T05:31:41.175Z,0.00
2019-02-24T05:32:41.144Z,0.00
2019-02-24T05:33:41.107Z,0.00
2019-02-24T05:34:41.061Z,0.00
2019-02-24T05:35:41.037Z,0.00
2019-02-24T05:36:40.992Z,0.00
2019-02-24T05:37:40.970Z,0.00
2019-02-24T05:38:40.942Z,0.00
2019-02-24T05:39:40.916Z,0.00
2019-02-24T05:40:40.902Z,0.00
2019-02-24T05:41:40.851Z,0.00
2019-02-24T05:42:42.495Z,0.00
2019-02-24T05:43:41.695Z,0.00
2019-02-24T05:44:40.756Z,0.00
2019-02-24T05:45:40.716Z,0.00
2019-02-24T05:46:40.679Z,0.00
2019-02-24T05:47:40.657Z,0.00
2019-02-24T05:48:40.629Z,0.00
2019-02-24T05:49:40.987Z,0.00
2019-02-24T05:50:40.553Z,0.00
2019-02-24T05:51:40.581Z,0.00
2019-02-24T05:52:40.498Z,0.00
2019-02-24T05:53:40.472Z,0.00
2019-02-24T05:54:40.427Z,0.00
2019-02-24T05:55:40.640Z,0.00
2019-02-24T05:56:40.360Z,0.00
2019-02-24T05:57:40.337Z,0.00
2019-02-24T05:58:40.289Z,0.00
2019-02-24T05:59:40.244Z,0.00
2019-02-24T06:00:40.236Z,0.00
2019-02-24T06:01:40.194Z,0.00
2019-02-24T06:02:40.160Z,0.00
2019-02-24T06:03:40.134Z,0.00
2019-02-24T06:04:40.096Z,0.00
2019-02-24T06:05:40.058Z,0.00
2019-02-24T06:06:40.031Z,0.00
2019-02-24T06:07:40.005Z,0.00
2019-02-24T06:08:39.977Z,0.00
2019-02-24T06:09:39.934Z,0.00
2019-02-24T06:10:39.902Z,0.00
2019-02-24T06:11:39.868Z,0.00
2019-02-24T06:12:39.834Z,0.00
2019-02-24T06:13:39.812Z,0.00
2019-02-24T06:14:39.782Z,0.00
2019-02-24T06:15:39.736Z,0.00
2019-02-24T06:16:39.770Z,0.00
2019-02-24T06:17:39.679Z,0.00
2019-02-24T06:18:39.639Z,0.00
2019-02-24T06:19:39.624Z,0.00
2019-02-24T06:20:39.591Z,0.00
2019-02-24T06:21:39.547Z,0.00
2019-02-24T06:22:39.561Z,0.00
2019-02-24T06:23:39.496Z,0.00
2019-02-24T06:24:39.448Z,0.00
2019-02-24T06:25:39.415Z,0.00
2019-02-24T06:26:39.406Z,0.00
2019-02-24T06:27:39.394Z,0.00
2019-02-24T06:28:39.313Z,0.00
2019-02-24T06:29:39.272Z,0.00
2019-02-24T06:30:39.248Z,0.00
2019-02-24T06:31:39.206Z,0.00
2019-02-24T06:32:39.201Z,0.00
2019-02-24T06:33:39.166Z,0.00
2019-02-24T06:34:39.124Z,0.00
2019-02-24T06:35:39.095Z,0.00
2019-02-24T06:36:39.062Z,0.00
2019-02-24T06:37:39.018Z,0.00
2019-02-24T06:38:38.989Z,0.00
2019-02-24T06:39:38.958Z,0.00
2019-02-24T06:40:38.927Z,0.00
2019-02-24T06:41:38.900Z,0.00
2019-02-24T06:42:38.867Z,0.00
2019-02-24T06:43:38.865Z,0.00
2019-02-24T06:44:38.788Z,0.00
2019-02-24T06:45:38.769Z,0.00
2019-02-24T06:46:38.717Z,0.00
2019-02-24T06:47:38.701Z,0.00
2019-02-24T06:48:38.678Z,0.00
2019-02-24T06:49:38.796Z,0.00
2019-02-24T06:50:38.608Z,0.00
2019-02-24T06:51:38.566Z,0.00
2019-02-24T06:52:38.536Z,0.00
2019-02-24T06:53:38.523Z,0.00
2019-02-24T06:54:38.467Z,0.00
2019-02-24T06:55:38.496Z,0.00
2019-02-24T06:56:38.476Z,0.00
2019-02-24T06:57:38.396Z,0.00
2019-02-24T06:58:38.322Z,0.00
2019-02-24T06:59:38.325Z,0.00
2019-02-24T07:00:38.279Z,0.00
2019-02-24T07:01:38.233Z,0.00
2019-02-24T07:02:38.212Z,0.00
2019-02-24T07:03:38.171Z,0.00
2019-02-24T07:04:38.158Z,0.00
2019-02-24T07:05:38.112Z,0.00
2019-02-24T07:06:38.077Z,0.00
2019-02-24T07:07:38.053Z,0.00
2019-02-24T07:08:38.019Z,0.00
2019-02-24T07:09:37.990Z,0.00
2019-02-24T07:10:37.951Z,0.00
2019-02-24T07:11:37.927Z,0.00
2019-02-24T07:12:37.887Z,0.00
2019-02-24T07:13:37.844Z,0.00
2019-02-24T07:14:37.803Z,0.00
2019-02-24T07:15:37.942Z,0.00
2019-02-24T07:16:37.754Z,0.00
2019-02-24T07:17:37.727Z,0.00
2019-02-24T07:18:37.692Z,0.00
2019-02-24T07:19:37.654Z,0.00
2019-02-24T07:20:37.620Z,0.00
2019-02-24T07:21:37.573Z,0.00
2019-02-24T07:22:37.550Z,0.00
2019-02-24T07:23:37.517Z,0.00
2019-02-24T07:24:37.495Z,0.00
2019-02-24T07:25:37.473Z,0.00
2019-02-24T07:26:37.428Z,0.00
2019-02-24T07:27:37.395Z,0.00
2019-02-24T07:28:37.369Z,0.00
2019-02-24T07:29:37.358Z,0.00
2019-02-24T07:30:37.298Z,0.00
2019-02-24T07:31:37.265Z,0.00
2019-02-24T07:32:37.233Z,0.00
2019-02-24T07:33:37.197Z,0.00
2019-02-24T07:34:37.146Z,0.00
2019-02-24T07:35:37.135Z,0.00
2019-02-24T07:36:37.092Z,0.00
2019-02-24T07:37:37.071Z,0.00
2019-02-24T07:38:37.038Z,0.00
2019-02-24T07:39:37.001Z,0.00
2019-02-24T07:40:36.952Z,0.00
2019-02-24T07:41:36.991Z,0.00
2019-02-24T07:42:36.894Z,0.00
2019-02-24T07:43:36.862Z,0.00
2019-02-24T07:44:36.827Z,0.00
2019-02-24T07:45:36.806Z,0.00
2019-02-24T07:46:36.769Z,0.00
2019-02-24T07:48:36.710Z,0.00
2019-02-24T07:49:36.689Z,0.00
2019-02-24T07:50:36.633Z,0.00
2019-02-24T07:51:36.615Z,0.00
2019-02-24T07:52:36.576Z,0.00
2019-02-24T07:53:36.732Z,0.00
2019-02-24T07:54:36.501Z,0.00
2019-02-24T07:55:36.469Z,0.00
2019-02-24T07:56:37.394Z,0.00
2019-02-24T07:57:36.406Z,0.00
2019-02-24T07:58:36.359Z,0.00
2019-02-24T07:59:36.346Z,0.00
2019-02-24T08:00:36.310Z,0.00
2019-02-24T08:01:36.269Z,0.00
2019-02-24T08:02:36.225Z,0.00
2019-02-24T08:03:36.208Z,0.00
2019-02-24T08:04:36.183Z,0.00
2019-02-24T08:05:36.149Z,0.00
2019-02-24T08:06:36.107Z,0.00
2019-02-24T08:07:36.088Z,0.00
2019-02-24T08:08:36.039Z,0.00
2019-02-24T08:09:36.022Z,0.00
2019-02-24T08:10:35.974Z,0.00
2019-02-24T08:11:35.956Z,0.00
2019-02-24T08:12:35.921Z,0.00
2019-02-24T08:13:35.879Z,0.00
2019-02-24T08:14:35.891Z,0.00
2019-02-24T08:15:35.823Z,0.00
2019-02-24T08:16:35.784Z,0.00
2019-02-24T08:17:35.759Z,0.00
2019-02-24T08:18:35.729Z,0.00
2019-02-24T08:19:35.698Z,0.00
2019-02-24T08:20:35.641Z,0.00
2019-02-24T08:21:35.625Z,0.00
2019-02-24T08:22:35.581Z,0.00
2019-02-24T08:23:35.556Z,0.00
2019-02-24T08:24:35.523Z,0.00
2019-02-24T08:25:35.498Z,0.00
2019-02-24T08:26:35.451Z,0.00
2019-02-24T08:27:35.427Z,0.00
2019-02-24T08:28:35.370Z,0.00
2019-02-24T08:29:35.365Z,0.00
2019-02-24T08:30:41.194Z,0.00
2019-02-24T08:31:35.283Z,0.00
2019-02-24T08:32:35.273Z,0.00
2019-02-24T08:33:35.231Z,0.00
2019-02-24T08:34:35.182Z,0.00
2019-02-24T08:35:35.144Z,0.00
2019-02-24T08:36:35.128Z,0.00
2019-02-24T08:37:35.096Z,0.00
2019-02-24T08:38:35.046Z,0.00
2019-02-24T08:39:35.053Z,0.00
2019-02-24T08:40:35.042Z,0.00
2019-02-24T08:41:34.959Z,0.00
2019-02-24T08:42:34.939Z,0.00
2019-02-24T08:43:34.898Z,0.00
2019-02-24T08:44:34.863Z,0.00
2019-02-24T08:45:34.810Z,0.00
2019-02-24T08:46:34.808Z,0.00
2019-02-24T08:47:34.820Z,0.00
2019-02-24T08:48:34.711Z,0.00
2019-02-24T08:49:34.679Z,0.00
2019-02-24T08:50:34.674Z,0.00
2019-02-24T08:51:34.618Z,0.00
2019-02-24T08:52:34.579Z,4.00
2019-02-24T08:53:34.564Z,0.00
2019-02-24T08:54:34.537Z,4.00
2019-02-24T08:55:34.483Z,4.00
2019-02-24T08:56:34.461Z,8.00
2019-02-24T08:57:34.482Z,8.00
2019-02-24T08:58:34.379Z,8.00
2019-02-24T08:59:34.366Z,12.00
2019-02-24T09:00:34.329Z,16.00
2019-02-24T09:01:34.307Z,16.00
2019-02-24T09:02:34.262Z,20.00
2019-02-24T09:03:34.236Z,24.00
2019-02-24T09:04:34.193Z,28.00
2019-02-24T09:05:34.176Z,32.00
2019-02-24T09:06:34.153Z,36.00
2019-02-24T09:07:34.110Z,44.00
2019-02-24T09:08:34.069Z,48.00
2019-02-24T09:09:34.046Z,56.00
2019-02-24T09:10:34.045Z,60.00
2019-02-24T09:11:33.972Z,72.00
2019-02-24T09:12:33.937Z,84.00
2019-02-24T09:13:33.907Z,100.00
2019-02-24T09:14:33.872Z,120.00
2019-02-24T09:15:33.853Z,128.00
2019-02-24T09:16:33.785Z,144.00
2019-02-24T09:17:33.773Z,172.00
2019-02-24T09:18:33.722Z,196.00
2019-02-24T09:19:33.707Z,224.00
2019-02-24T09:20:33.662Z,240.00
2019-02-24T09:21:33.650Z,256.00
2019-02-24T09:22:33.606Z,280.00
2019-02-24T09:23:33.590Z,296.00
2019-02-24T09:24:33.688Z,320.00
2019-02-24T09:25:33.512Z,340.00
2019-02-24T09:26:33.464Z,364.00
2019-02-24T09:27:33.437Z,392.00
2019-02-24T09:28:33.386Z,420.00
2019-02-24T09:29:33.374Z,448.00
2019-02-24T09:30:33.442Z,468.00
2019-02-24T09:31:33.301Z,492.00
2019-02-24T09:32:33.289Z,520.00
2019-02-24T09:33:33.246Z,556.00
2019-02-24T09:35:33.165Z,640.00
2019-02-24T09:36:33.152Z,684.00
2019-02-24T09:37:33.109Z,704.00
2019-02-24T09:38:33.057Z,744.00
2019-02-24T09:39:33.037Z,808.00
2019-02-24T09:40:32.991Z,832.00
2019-02-24T09:41:32.979Z,868.00
2019-02-24T09:42:32.947Z,884.00
2019-02-24T09:43:32.911Z,852.00
2019-02-24T09:44:32.925Z,896.00
2019-02-24T09:45:33.195Z,952.00
2019-02-24T09:46:32.801Z,988.00
2019-02-24T09:47:32.779Z,1028.00
2019-02-24T09:48:32.750Z,1060.00
2019-02-24T09:49:32.715Z,1084.00
2019-02-24T09:50:32.657Z,1112.00
2019-02-24T09:51:32.828Z,1128.00
2019-02-24T09:52:32.620Z,1148.00
2019-02-24T09:53:32.569Z,1180.00
2019-02-24T09:54:32.545Z,1208.00
2019-02-24T09:55:32.536Z,1228.00
2019-02-24T09:56:32.480Z,1244.00
2019-02-24T09:57:32.455Z,1272.00
2019-02-24T09:58:32.460Z,1300.00
2019-02-24T09:59:32.425Z,1340.00
2019-02-24T10:00:32.335Z,1384.00
2019-02-24T10:01:32.317Z,1424.00
2019-02-24T10:02:32.284Z,1456.00
2019-02-24T10:03:32.254Z,1480.00
2019-02-24T10:04:32.222Z,1500.00
2019-02-24T10:05:32.185Z,1524.00
2019-02-24T10:06:32.139Z,1564.00
2019-02-24T10:07:32.121Z,1596.00
2019-02-24T10:08:32.067Z,1616.00
2019-02-24T10:09:32.066Z,1644.00
2019-02-24T10:10:32.014Z,1672.00
2019-02-24T10:11:31.990Z,1696.00
2019-02-24T10:12:32.134Z,1716.00
2019-02-24T10:13:31.902Z,1748.00
2019-02-24T10:14:31.868Z,1780.00
2019-02-24T10:15:31.857Z,1812.00
2019-02-24T10:16:31.827Z,1832.00
2019-02-24T10:17:31.795Z,1856.00
2019-02-24T10:18:32.089Z,1880.00
2019-02-24T10:19:31.734Z,1900.00
2019-02-24T10:20:31.689Z,1916.00
2019-02-24T10:21:31.661Z,1932.00
2019-02-24T10:22:31.684Z,1952.00
2019-02-24T10:23:31.577Z,1976.00
2019-02-24T10:24:31.566Z,1996.00
2019-02-24T10:25:31.523Z,2020.00
2019-02-24T10:26:31.492Z,2044.00
2019-02-24T10:27:31.468Z,2080.00
2019-02-24T10:28:31.436Z,2100.00
2019-02-24T10:29:31.401Z,2120.00
2019-02-24T10:30:31.681Z,2136.00
2019-02-24T10:31:31.334Z,2160.00
2019-02-24T10:32:31.313Z,2180.00
2019-02-24T10:33:31.275Z,2200.00
2019-02-24T10:34:31.255Z,2216.00
2019-02-24T10:35:31.216Z,2236.00
2019-02-24T10:36:31.160Z,2256.00
2019-02-24T10:37:31.151Z,2264.00
2019-02-24T10:38:31.106Z,2272.00
2019-02-24T10:39:31.089Z,2280.00
2019-02-24T10:40:31.054Z,2288.00
2019-02-24T10:41:31.019Z,2308.00
2019-02-24T10:42:31.199Z,2324.00
2019-02-24T10:43:30.954Z,2340.00
2019-02-24T10:44:30.914Z,2356.00
2019-02-24T10:46:30.845Z,2372.00
2019-02-24T10:47:30.810Z,2380.00
2019-02-24T10:48:30.795Z,2392.00
2019-02-24T10:49:30.768Z,2404.00
2019-02-24T10:50:30.745Z,2412.00
2019-02-24T10:51:30.704Z,2424.00
2019-02-24T10:52:30.775Z,2440.00
2019-02-24T10:53:30.645Z,2460.00
2019-02-24T10:54:30.607Z,2480.00
2019-02-24T10:55:30.583Z,2500.00
2019-02-24T10:56:30.912Z,2516.00
2019-02-24T10:57:30.501Z,2528.00
2019-02-24T10:58:34.663Z,2548.00
2019-02-24T10:59:30.476Z,2560.00
2019-02-24T11:00:30.423Z,2576.00
2019-02-24T11:01:30.393Z,2592.00
2019-02-24T11:02:30.343Z,2604.00
2019-02-24T11:03:30.322Z,2616.00
2019-02-24T11:04:30.299Z,2620.00
2019-02-24T11:05:30.271Z,2628.00
2019-02-24T11:06:30.238Z,2640.00
2019-02-24T11:07:30.206Z,2644.00
2019-02-24T11:08:30.231Z,2660.00
2019-02-24T11:09:30.150Z,2684.00
2019-02-24T11:10:30.095Z,2704.00
2019-02-24T11:11:30.087Z,2732.00
2019-02-24T11:12:30.047Z,2728.00
2019-02-24T11:13:30.037Z,2748.00
2019-02-24T11:14:30.005Z,2768.00
2019-02-24T11:15:30.034Z,2780.00
2019-02-24T11:16:29.925Z,2808.00
2019-02-24T11:17:30.271Z,2828.00
2019-02-24T11:18:29.870Z,2856.00
2019-02-24T11:19:29.849Z,2896.00
2019-02-24T11:20:29.807Z,2932.00
2019-02-24T11:21:29.788Z,2952.00
2019-02-24T11:22:29.745Z,2976.00
2019-02-24T11:23:29.879Z,3000.00
2019-02-24T11:24:29.689Z,3016.00
2019-02-24T11:25:29.648Z,3032.00
2019-02-24T11:26:29.626Z,3052.00
2019-02-24T11:27:29.591Z,3080.00
2019-02-24T11:28:29.637Z,3092.00
2019-02-24T11:29:29.537Z,3108.00
2019-02-24T11:30:29.484Z,3132.00
2019-02-24T11:31:37.976Z,3156.00
2019-02-24T11:32:29.445Z,3180.00
2019-02-24T11:33:29.414Z,3200.00
2019-02-24T11:34:29.379Z,3216.00
2019-02-24T11:35:29.355Z,3228.00
2019-02-24T11:36:29.345Z,3252.00
2019-02-24T11:37:29.278Z,3272.00
2019-02-24T11:38:29.266Z,3304.00
2019-02-24T11:39:29.232Z,3328.00
2019-02-24T11:40:29.186Z,3348.00
2019-02-24T11:41:29.180Z,3372.00
2019-02-24T11:42:29.130Z,3388.00
2019-02-24T11:43:29.109Z,3404.00
2019-02-24T11:44:29.089Z,3420.00
2019-02-24T11:45:29.076Z,3440.00
2019-02-24T11:46:29.027Z,3460.00
2019-02-24T11:47:29.004Z,3472.00
2019-02-24T11:48:28.950Z,3500.00
2019-02-24T11:49:28.967Z,3512.00
2019-02-24T11:50:28.926Z,3548.00
2019-02-24T11:51:28.858Z,3580.00
2019-02-24T11:52:28.840Z,3612.00
2019-02-24T11:53:28.826Z,3624.00
2019-02-24T11:54:28.783Z,3684.00
2019-02-24T11:55:28.854Z,3712.00
2019-02-24T11:56:28.792Z,3764.00
2019-02-24T11:57:28.685Z,3780.00
2019-02-24T11:58:28.683Z,3780.00
2019-02-24T11:59:28.643Z,3800.00
2019-02-24T12:00:28.620Z,3868.00
2019-02-24T12:01:28.597Z,3884.00
2019-02-24T12:02:34.297Z,3904.00
2019-02-24T12:03:28.511Z,3960.00
2019-02-24T12:04:28.504Z,3984.00
2019-02-24T12:05:28.853Z,4020.00
2019-02-24T12:06:28.481Z,4048.00
2019-02-24T12:07:28.422Z,4080.00
2019-02-24T12:08:28.367Z,4132.00
2019-02-24T12:09:28.375Z,4168.00
2019-02-24T12:10:28.325Z,4204.00
2019-02-24T12:11:28.307Z,4260.00
2019-02-24T12:12:28.270Z,4276.00
2019-02-24T12:13:28.446Z,4328.00
2019-02-24T12:14:28.216Z,4348.00
2019-02-24T12:15:28.193Z,4320.00
2019-02-24T12:16:28.148Z,4300.00
2019-02-24T12:17:28.115Z,4320.00
2019-02-24T12:18:28.167Z,4364.00
2019-02-24T12:19:28.093Z,4420.00
2019-02-24T12:20:28.135Z,4440.00
2019-02-24T12:21:28.279Z,4456.00
2019-02-24T12:22:27.994Z,4496.00
2019-02-24T12:23:27.955Z,4548.00
2019-02-24T12:24:27.927Z,4620.00
2019-02-24T12:25:27.901Z,4740.00
2019-02-24T12:26:27.858Z,4644.00
2019-02-24T12:27:27.968Z,4660.00
2019-02-24T12:28:27.815Z,4672.00
2019-02-24T12:29:27.807Z,4632.00
2019-02-24T12:30:27.757Z,4592.00
2019-02-24T12:31:27.732Z,4552.00
2019-02-24T12:32:27.802Z,4496.00
2019-02-24T12:33:27.794Z,4568.00
2019-02-24T12:34:27.646Z,4672.00
2019-02-24T12:35:27.603Z,4688.00
2019-02-24T12:36:27.590Z,4792.00
2019-02-24T12:37:27.623Z,4844.00
2019-02-24T12:38:27.692Z,4980.00
2019-02-24T12:39:27.486Z,4928.00
2019-02-24T12:40:27.462Z,4940.00
2019-02-24T12:41:27.437Z,4944.00
2019-02-24T12:42:27.457Z,4904.00
2019-02-24T12:43:27.416Z,4880.00
2019-02-24T12:44:27.373Z,4908.00
2019-02-24T12:45:27.320Z,4928.00
2019-02-24T12:46:27.331Z,4960.00
2019-02-24T12:47:27.297Z,5008.00
2019-02-24T12:48:27.276Z,5088.00
2019-02-24T12:50:27.198Z,5300.00
2019-02-24T12:51:27.184Z,5596.00
2019-02-24T12:52:27.154Z,6540.00
2019-02-24T12:53:27.596Z,5140.00
2019-02-24T12:54:27.101Z,6124.00
2019-02-24T12:55:27.069Z,5912.00
2019-02-24T12:56:27.040Z,3968.00
2019-02-24T12:57:27.008Z,4560.00
2019-02-24T12:58:26.989Z,7524.00
2019-02-24T12:59:27.271Z,9224.00
2019-02-24T13:00:26.920Z,9532.00
2019-02-24T13:01:26.904Z,4388.00
2019-02-24T13:02:26.864Z,3612.00